N664NG K6B6-K48I
Flight info
| Callsign | N664NG |
|---|---|
| Flight time | N/A |
| Altitude | 24000 |
| Route | GDM HAR RICCS |
| Aircraft | PC12/L-VGD/A |
Departure
| Time | 2026-05-06 13:26 |
|---|---|
| Airport | Minute Man Air Field (K6B6) |
Arrival
| Time | N/A |
|---|---|
| Airport | Braxton County Airport (K48I) |
| Time | Latitude | Longitude | Altitude | Speed | Heading |
|---|---|---|---|---|---|
| 2026-05-06 13:16 | 42.46125 | -71.51744 | 271 ft | 0 kts | 197° |
| 2026-05-06 13:23 | 42.46120 | -71.51749 | 271 ft | 3 kts | 231° |
| 2026-05-06 13:23 | 42.46122 | -71.51792 | 270 ft | 6 kts | 304° |
| 2026-05-06 13:23 | 42.46181 | -71.51784 | 270 ft | 11 kts | 17° |
| 2026-05-06 13:24 | 42.46243 | -71.51758 | 272 ft | 8 kts | 18° |
| 2026-05-06 13:24 | 42.46296 | -71.51737 | 273 ft | 8 kts | 18° |
| 2026-05-06 13:24 | 42.46362 | -71.51711 | 274 ft | 11 kts | 16° |
| 2026-05-06 13:24 | 42.46423 | -71.51687 | 275 ft | 10 kts | 16° |
| 2026-05-06 13:25 | 42.46476 | -71.51690 | 275 ft | 9 kts | 305° |
| 2026-05-06 13:25 | 42.46471 | -71.51725 | 274 ft | 0 kts | 194° |
| 2026-05-06 13:25 | 42.46441 | -71.51737 | 274 ft | 30 kts | 197° |
| 2026-05-06 13:25 | 42.45995 | -71.51926 | 393 ft | 84 kts | 198° |
| 2026-05-06 13:26 | 42.45450 | -71.52184 | 825 ft | 88 kts | 198° |
| 2026-05-06 13:26 | 42.44893 | -71.52477 | 1305 ft | 92 kts | 213° |
| 2026-05-06 13:26 | 42.44585 | -71.53316 | 1713 ft | 116 kts | 256° |
| 2026-05-06 13:26 | 42.44830 | -71.54420 | 2282 ft | 124 kts | 277° |
| 2026-05-06 13:27 | 42.45026 | -71.55504 | 2825 ft | 120 kts | 265° |
| 2026-05-06 13:27 | 42.45150 | -71.56569 | 3413 ft | 115 kts | 264° |
| 2026-05-06 13:27 | 42.45287 | -71.57662 | 3910 ft | 120 kts | 266° |
| 2026-05-06 13:27 | 42.45451 | -71.58749 | 4416 ft | 121 kts | 268° |
| 2026-05-06 13:28 | 42.45641 | -71.59846 | 4917 ft | 122 kts | 269° |
| 2026-05-06 13:28 | 42.45847 | -71.60960 | 5412 ft | 123 kts | 269° |
| 2026-05-06 13:28 | 42.46061 | -71.62074 | 5866 ft | 125 kts | 270° |
| 2026-05-06 13:28 | 42.46284 | -71.63204 | 6363 ft | 124 kts | 270° |
| 2026-05-06 13:29 | 42.46505 | -71.64339 | 6782 ft | 127 kts | 269° |
| 2026-05-06 13:29 | 42.46727 | -71.65462 | 7243 ft | 127 kts | 269° |
| 2026-05-06 13:29 | 42.46954 | -71.66605 | 7739 ft | 124 kts | 268° |
| 2026-05-06 13:29 | 42.47177 | -71.67745 | 8125 ft | 128 kts | 268° |
| 2026-05-06 13:30 | 42.47401 | -71.68901 | 8585 ft | 131 kts | 268° |
| 2026-05-06 13:30 | 42.47630 | -71.70061 | 9199 ft | 129 kts | 268° |
| 2026-05-06 13:30 | 42.47860 | -71.71222 | 9736 ft | 130 kts | 267° |
| 2026-05-06 13:30 | 42.48089 | -71.72395 | 10265 ft | 131 kts | 267° |
| 2026-05-06 13:31 | 42.48324 | -71.73673 | 10601 ft | 148 kts | 268° |
| 2026-05-06 13:31 | 42.48585 | -71.75085 | 10948 ft | 161 kts | 270° |
| 2026-05-06 13:31 | 42.48875 | -71.76549 | 11450 ft | 162 kts | 271° |
| 2026-05-06 13:31 | 42.49175 | -71.78022 | 11954 ft | 163 kts | 271° |
| 2026-05-06 13:32 | 42.49470 | -71.79484 | 12420 ft | 163 kts | 271° |
| 2026-05-06 13:32 | 42.49762 | -71.80948 | 12891 ft | 163 kts | 271° |
| 2026-05-06 13:32 | 42.50053 | -71.82430 | 13352 ft | 163 kts | 270° |
| 2026-05-06 13:32 | 42.50343 | -71.83916 | 13733 ft | 166 kts | 271° |